Time;durP1;ratioP1;P1;durP2;ratioP2;P2;SDS_P1;SDS_P2;PMS_P1;PMS_P2;Temp;Humidity;BMP_temperature;BMP_pressure;BME280_temperature;BME280_humidity;BME280_pressure;Samples;Min_cycle;Max_cycle;Signal;HPM_P1;HPM_P2
2022/01/31 00:00:55;;;;;;;;;44.00;36.33;;;;;;;;5183494;27;13271;-73
2022/01/31 00:03:21;;;;;;;;;42.67;37.33;;;;;;;;5184149;27;10422;-73
2022/01/31 00:05:46;;;;;;;;;43.00;37.33;;;;;;;;5184007;27;11593;-74
2022/01/31 00:08:11;;;;;;;;;40.00;35.67;;;;;;;;5183768;27;8899;-74
2022/01/31 00:10:37;;;;;;;;;38.00;34.67;;;;;;;;5184038;27;11918;-73
2022/01/31 00:13:06;;;;;;;;;42.00;38.33;;;;;;;;5184109;27;10646;-73
2022/01/31 00:15:37;;;;;;;;;37.33;36.33;;;;;;;;5183526;27;13506;-75
2022/01/31 00:18:02;;;;;;;;;40.67;32.67;;;;;;;;5183800;27;12429;-74
2022/01/31 00:20:27;;;;;;;;;34.67;34.33;;;;;;;;5183525;27;14664;-75
2022/01/31 00:22:52;;;;;;;;;39.33;38.00;;;;;;;;5183376;27;13514;-74
2022/01/31 00:25:18;;;;;;;;;39.33;34.33;;;;;;;;5183515;27;11562;-75
2022/01/31 00:27:43;;;;;;;;;34.33;29.00;;;;;;;;5183077;27;8870;-75
2022/01/31 00:30:09;;;;;;;;;38.67;34.00;;;;;;;;5163971;27;14209;-74
2022/01/31 00:32:35;;;;;;;;;42.00;34.67;;;;;;;;5183033;27;11854;-75
2022/01/31 00:35:01;;;;;;;;;37.67;31.33;;;;;;;;5183779;27;13653;-74
2022/01/31 00:37:26;;;;;;;;;39.33;34.33;;;;;;;;5183201;27;13694;-74
2022/01/31 00:39:52;;;;;;;;;42.00;31.67;;;;;;;;5183194;27;11634;-74
2022/01/31 00:42:19;;;;;;;;;45.00;39.00;;;;;;;;5183412;27;13784;-74
2022/01/31 00:44:53;;;;;;;;;41.33;36.67;;;;;;;;5182705;27;11660;-76
2022/01/31 00:47:22;;;;;;;;;41.67;38.33;;;;;;;;5183110;27;11614;-74
2022/01/31 00:50:07;;;;;;;;;41.00;34.67;;;;;;;;5183164;27;10646;-73
2022/01/31 00:52:33;;;;;;;;;42.00;33.00;;;;;;;;5183343;27;10537;-76
2022/01/31 00:54:58;;;;;;;;;38.33;34.33;;;;;;;;5182838;27;11405;-75
2022/01/31 00:57:24;;;;;;;;;42.33;34.33;;;;;;;;5182385;27;13462;-74
2022/01/31 00:59:51;;;;;;;;;41.33;32.33;;;;;;;;5163894;27;10592;-76
2022/01/31 01:02:16;;;;;;;;;32.67;29.67;;;;;;;;5183193;27;8911;-74
2022/01/31 01:04:42;;;;;;;;;40.33;35.33;;;;;;;;5163985;27;14711;-76
2022/01/31 01:07:08;;;;;;;;;35.67;33.00;;;;;;;;5182800;27;13296;-75
2022/01/31 01:09:33;;;;;;;;;33.00;31.67;;;;;;;;5182758;27;13293;-75
2022/01/31 01:11:58;;;;;;;;;29.67;28.33;;;;;;;;5182247;27;11419;-75
2022/01/31 01:14:24;;;;;;;;;34.00;30.00;;;;;;;;5182299;27;13244;-76
2022/01/31 01:16:49;;;;;;;;;32.00;28.00;;;;;;;;5182290;27;13365;-75
2022/01/31 01:19:14;;;;;;;;;37.00;31.33;;;;;;;;5182361;27;9568;-74
2022/01/31 01:21:40;;;;;;;;;30.67;28.33;;;;;;;;5164033;27;14448;-76
2022/01/31 01:24:05;;;;;;;;;28.67;23.33;;;;;;;;5183004;27;11367;-76
2022/01/31 01:26:32;;;;;;;;;30.33;28.67;;;;;;;;5163869;27;10274;-74
2022/01/31 01:28:57;;;;;;;;;33.67;27.33;;;;;;;;5181551;27;14554;-75
2022/01/31 01:31:22;;;;;;;;;21.67;21.00;;;;;;;;5182302;27;11536;-75
2022/01/31 01:33:48;;;;;;;;;27.67;23.33;;;;;;;;5182293;27;13367;-74
2022/01/31 01:36:13;;;;;;;;;29.33;26.00;;;;;;;;5181659;27;11534;-76
2022/01/31 01:38:39;;;;;;;;;30.67;28.00;;;;;;;;5181703;27;11561;-76
2022/01/31 01:41:04;;;;;;;;;31.00;29.33;;;;;;;;5163524;27;14558;-76
2022/01/31 01:43:30;;;;;;;;;26.67;25.67;;;;;;;;5182841;27;12630;-75
2022/01/31 01:45:56;;;;;;;;;37.00;33.00;;;;;;;;5182203;27;14487;-75
2022/01/31 01:48:22;;;;;;;;;40.33;39.00;;;;;;;;5181955;27;13305;-75
2022/01/31 01:50:48;;;;;;;;;43.67;38.67;;;;;;;;5181985;27;12317;-75
2022/01/31 01:53:13;;;;;;;;;44.00;37.67;;;;;;;;5181828;27;11453;-76
2022/01/31 01:55:39;;;;;;;;;49.00;40.00;;;;;;;;5181826;27;10342;-75
2022/01/31 01:58:06;;;;;;;;;46.00;39.67;;;;;;;;5182096;27;13547;-75
2022/01/31 02:00:49;;;;;;;;;45.33;37.33;;;;;;;;5182303;27;12279;-76
2022/01/31 02:03:14;;;;;;;;;42.33;39.00;;;;;;;;5182122;27;11822;-77
2022/01/31 02:05:40;;;;;;;;;51.67;43.67;;;;;;;;5182240;27;11512;-76
2022/01/31 02:08:05;;;;;;;;;48.67;43.00;;;;;;;;5181822;27;13248;-75
2022/01/31 02:10:31;;;;;;;;;17.00;8.33;;;;;;;;5181917;27;13204;-75
2022/01/31 02:13:02;;;;;;;;;49.00;40.00;;;;;;;;5181468;27;23834;-75
2022/01/31 02:15:27;;;;;;;;;40.67;39.33;;;;;;;;5180823;27;23779;-76
2022/01/31 02:17:53;;;;;;;;;54.33;45.00;;;;;;;;5181354;27;12192;-76
2022/01/31 02:20:18;;;;;;;;;54.00;43.67;;;;;;;;5181318;27;13652;-76
2022/01/31 02:22:43;;;;;;;;;57.33;47.00;;;;;;;;5181850;27;10437;-75
2022/01/31 02:25:10;;;;;;;;;50.67;45.00;;;;;;;;5182320;27;11440;-74
2022/01/31 02:27:36;;;;;;;;;50.67;46.33;;;;;;;;5162221;27;11253;-75
2022/01/31 02:30:03;;;;;;;;;54.67;46.33;;;;;;;;5181528;27;8812;-75
2022/01/31 02:32:28;;;;;;;;;42.67;34.00;;;;;;;;5180868;27;8858;-75
2022/01/31 02:34:54;;;;;;;;;55.33;43.33;;;;;;;;5182068;27;13238;-75
2022/01/31 02:37:19;;;;;;;;;61.67;47.00;;;;;;;;5181817;27;13482;-74
2022/01/31 02:39:45;;;;;;;;;66.67;51.00;;;;;;;;5181849;27;13348;-75
2022/01/31 02:42:10;;;;;;;;;59.67;51.00;;;;;;;;5181523;27;9501;-74
2022/01/31 02:44:45;;;;;;;;;67.67;54.67;;;;;;;;5181828;27;8778;-74
2022/01/31 02:47:15;;;;;;;;;65.33;54.00;;;;;;;;5181109;27;13467;-76
2022/01/31 02:49:56;;;;;;;;;71.67;58.00;;;;;;;;5181728;27;11643;-75
2022/01/31 02:52:22;;;;;;;;;71.00;57.33;;;;;;;;5181183;27;12323;-75
2022/01/31 02:54:48;;;;;;;;;72.75;58.50;;;;;;;;5180879;27;10939;-74
2022/01/31 02:57:13;;;;;;;;;72.25;58.00;;;;;;;;5181368;27;11853;-76
2022/01/31 02:59:38;;;;;;;;;76.50;61.50;;;;;;;;5181227;27;8813;-75
2022/01/31 03:02:04;;;;;;;;;85.25;67.25;;;;;;;;5181222;27;12379;-74
2022/01/31 03:04:30;;;;;;;;;77.25;59.25;;;;;;;;5181449;27;13301;-75
2022/01/31 03:06:55;;;;;;;;;86.75;65.25;;;;;;;;5181565;27;10349;-75
2022/01/31 03:09:20;;;;;;;;;82.50;66.25;;;;;;;;5181207;27;11674;-74
2022/01/31 03:11:46;;;;;;;;;72.00;59.25;;;;;;;;5184043;27;10418;-75
2022/01/31 03:14:11;;;;;;;;;84.00;67.25;;;;;;;;5165704;27;14428;-75
2022/01/31 03:16:40;;;;;;;;;78.25;63.75;;;;;;;;5185088;27;10355;-75
2022/01/31 03:19:09;;;;;;;;;81.75;64.00;;;;;;;;5165487;27;13627;-75
2022/01/31 03:21:34;;;;;;;;;77.50;59.25;;;;;;;;5185089;27;13536;-74
2022/01/31 03:23:59;;;;;;;;;75.00;61.00;;;;;;;;5184981;27;13184;-75
2022/01/31 03:26:25;;;;;;;;;74.25;59.25;;;;;;;;5184952;27;12203;-75
2022/01/31 03:28:52;;;;;;;;;80.75;64.50;;;;;;;;5184448;27;12202;-75
2022/01/31 03:31:18;;;;;;;;;76.50;59.00;;;;;;;;5184205;27;13369;-76
2022/01/31 03:33:45;;;;;;;;;71.00;55.00;;;;;;;;5184853;27;13474;-75
2022/01/31 03:36:10;;;;;;;;;77.50;59.25;;;;;;;;5184971;27;10488;-75
2022/01/31 03:38:40;;;;;;;;;77.00;59.50;;;;;;;;5184701;27;11509;-75
2022/01/31 03:41:06;;;;;;;;;71.75;58.25;;;;;;;;5184941;27;8778;-74
2022/01/31 03:43:31;;;;;;;;;65.00;52.67;;;;;;;;5185089;27;11757;-75
2022/01/31 03:45:56;;;;;;;;;75.25;58.25;;;;;;;;5184328;27;13452;-74
2022/01/31 03:48:24;;;;;;;;;76.50;58.25;;;;;;;;5183532;27;13462;-75
2022/01/31 03:50:49;;;;;;;;;78.50;60.00;;;;;;;;5184434;27;10050;-76
2022/01/31 03:53:15;;;;;;;;;78.00;60.00;;;;;;;;5184275;27;12283;-75
2022/01/31 03:55:40;;;;;;;;;71.75;57.00;;;;;;;;5185015;27;8928;-73
2022/01/31 03:58:05;;;;;;;;;77.75;60.00;;;;;;;;5184366;27;11438;-75
2022/01/31 04:00:31;;;;;;;;;82.75;62.50;;;;;;;;5184686;27;9760;-74
2022/01/31 04:02:56;;;;;;;;;78.00;61.00;;;;;;;;5183656;27;13309;-75
2022/01/31 04:05:21;;;;;;;;;83.25;64.25;;;;;;;;5164665;27;13777;-75
2022/01/31 04:07:46;;;;;;;;;78.75;61.00;;;;;;;;5183810;27;13427;-76
2022/01/31 04:10:12;;;;;;;;;77.50;60.25;;;;;;;;5184615;27;13719;-75
2022/01/31 04:12:37;;;;;;;;;79.50;61.25;;;;;;;;5164513;27;13625;-76
2022/01/31 04:15:03;;;;;;;;;81.00;64.00;;;;;;;;5182362;27;9607;-75
2022/01/31 04:17:31;;;;;;;;;75.75;60.25;;;;;;;;5181828;27;13224;-74
2022/01/31 04:19:56;;;;;;;;;80.75;63.00;;;;;;;;5182202;27;13356;-75
2022/01/31 04:22:24;;;;;;;;;84.25;65.25;;;;;;;;5181756;27;13295;-75
2022/01/31 04:24:54;;;;;;;;;77.50;61.25;;;;;;;;5182174;27;11805;-75
2022/01/31 04:27:20;;;;;;;;;79.75;62.75;;;;;;;;5182067;27;12498;-76
2022/01/31 04:29:47;;;;;;;;;84.00;65.00;;;;;;;;5181836;27;10405;-74
2022/01/31 04:32:12;;;;;;;;;85.75;68.75;;;;;;;;5181754;27;13515;-75
2022/01/31 04:34:38;;;;;;;;;82.75;67.00;;;;;;;;5181683;27;12709;-77
2022/01/31 04:37:03;;;;;;;;;81.25;65.50;;;;;;;;5160072;27;12656;-75
2022/01/31 04:39:31;;;;;;;;;84.50;66.50;;;;;;;;5181822;27;11434;-75
2022/01/31 04:41:56;;;;;;;;;79.75;62.00;;;;;;;;5181987;27;10897;-73
2022/01/31 04:44:22;;;;;;;;;78.75;63.00;;;;;;;;5181529;27;13462;-73
2022/01/31 04:46:49;;;;;;;;;78.00;62.50;;;;;;;;5181889;27;9729;-74
2022/01/31 04:49:23;;;;;;;;;79.25;63.25;;;;;;;;5182268;27;10671;-73
2022/01/31 04:51:49;;;;;;;;;81.75;64.50;;;;;;;;5182923;27;12829;-77
2022/01/31 04:54:15;;;;;;;;;80.75;62.75;;;;;;;;5165027;27;16278;-79
2022/01/31 04:56:42;;;;;;;;;85.75;68.75;;;;;;;;5184020;27;11476;-78
2022/01/31 04:59:07;;;;;;;;;82.50;65.25;;;;;;;;5183499;27;8839;-81
2022/01/31 05:01:34;;;;;;;;;79.00;63.25;;;;;;;;5183304;27;10346;-75
2022/01/31 05:03:59;;;;;;;;;78.25;63.00;;;;;;;;5183786;27;12332;-77
2022/01/31 05:06:33;;;;;;;;;81.00;65.00;;;;;;;;5183758;27;11446;-76
2022/01/31 05:08:58;;;;;;;;;80.25;64.00;;;;;;;;5163349;27;14580;-75
2022/01/31 05:11:24;;;;;;;;;80.25;63.50;;;;;;;;5183022;27;10338;-76
2022/01/31 05:13:49;;;;;;;;;76.00;59.00;;;;;;;;5183344;27;9923;-79
2022/01/31 05:16:14;;;;;;;;;80.00;62.75;;;;;;;;5183038;27;13485;-79
2022/01/31 05:18:40;;;;;;;;;77.75;61.00;;;;;;;;5182663;27;13536;-75
2022/01/31 05:21:05;;;;;;;;;78.75;61.50;;;;;;;;5183188;27;13780;-75
2022/01/31 05:23:31;;;;;;;;;78.00;61.00;;;;;;;;5183064;27;12988;-74
2022/01/31 05:25:56;;;;;;;;;77.00;60.75;;;;;;;;5182836;27;8788;-77
2022/01/31 05:28:22;;;;;;;;;75.25;60.75;;;;;;;;5182456;27;11797;-78
2022/01/31 05:30:47;;;;;;;;;76.25;61.00;;;;;;;;5182954;27;8861;-75
2022/01/31 05:33:12;;;;;;;;;72.25;57.00;;;;;;;;5182244;27;12025;-75
2022/01/31 05:35:37;;;;;;;;;78.50;61.75;;;;;;;;5182630;27;9512;-78
2022/01/31 05:38:03;;;;;;;;;77.00;60.75;;;;;;;;5182209;27;12896;-79
2022/01/31 05:40:29;;;;;;;;;76.00;61.00;;;;;;;;5182080;27;10337;-76
2022/01/31 05:42:54;;;;;;;;;68.25;54.00;;;;;;;;5182980;27;11608;-74
2022/01/31 05:45:19;;;;;;;;;75.50;58.00;;;;;;;;5182930;27;12205;-74
2022/01/31 05:47:44;;;;;;;;;76.00;58.50;;;;;;;;5182664;27;12623;-75
2022/01/31 05:50:10;;;;;;;;;71.25;56.25;;;;;;;;5182720;27;11427;-74
2022/01/31 05:52:35;;;;;;;;;75.50;57.75;;;;;;;;5162979;27;13880;-74
2022/01/31 05:55:00;;;;;;;;;74.75;59.00;;;;;;;;5182544;27;10333;-75
2022/01/31 05:57:26;;;;;;;;;75.00;57.25;;;;;;;;5181877;27;11446;-73
2022/01/31 05:59:51;;;;;;;;;64.50;52.25;;;;;;;;5182058;27;11682;-75
2022/01/31 06:02:17;;;;;;;;;65.00;52.75;;;;;;;;5182107;27;12492;-77
2022/01/31 06:04:42;;;;;;;;;67.75;51.50;;;;;;;;5181942;27;10441;-74
2022/01/31 06:07:07;;;;;;;;;59.00;48.67;;;;;;;;5181557;27;11376;-75
2022/01/31 06:09:33;;;;;;;;;53.00;43.00;;;;;;;;5181749;27;13320;-74
2022/01/31 06:12:01;;;;;;;;;52.33;44.00;;;;;;;;5180556;27;11633;-75
2022/01/31 06:14:27;;;;;;;;;53.00;43.33;;;;;;;;5162793;27;12587;-72
2022/01/31 06:16:52;;;;;;;;;53.33;44.33;;;;;;;;5179915;27;11451;-74
2022/01/31 06:19:17;;;;;;;;;52.67;44.33;;;;;;;;5157143;27;10403;-72
2022/01/31 06:21:42;;;;;;;;;57.67;47.00;;;;;;;;5174849;27;8967;-72
2022/01/31 06:24:10;;;;;;;;;47.00;41.67;;;;;;;;5178322;27;11643;-72
2022/01/31 06:26:35;;;;;;;;;47.00;41.00;;;;;;;;5178032;27;13307;-73
2022/01/31 06:29:01;;;;;;;;;43.67;37.67;;;;;;;;5176715;27;9482;-73
2022/01/31 06:31:27;;;;;;;;;30.00;27.67;;;;;;;;5178056;27;12631;-73
2022/01/31 06:33:52;;;;;;;;;30.00;28.33;;;;;;;;5177432;27;12468;-71
2022/01/31 06:36:18;;;;;;;;;35.67;31.33;;;;;;;;5176246;27;8891;-73
2022/01/31 06:38:45;;;;;;;;;34.00;34.00;;;;;;;;5174007;27;11383;-72
2022/01/31 06:41:11;;;;;;;;;38.00;36.67;;;;;;;;5178933;27;11471;-72
2022/01/31 06:43:37;;;;;;;;;41.67;37.67;;;;;;;;5179357;27;11657;-75
2022/01/31 06:46:03;;;;;;;;;37.67;33.00;;;;;;;;5182853;27;13021;-74
2022/01/31 06:48:28;;;;;;;;;37.33;34.33;;;;;;;;5179300;27;13365;-84
2022/01/31 06:50:57;;;;;;;;;39.67;34.33;;;;;;;;5163876;27;12220;-84
2022/01/31 06:53:26;;;;;;;;;33.00;28.33;;;;;;;;5184051;27;8943;-78
2022/01/31 06:55:52;;;;;;;;;33.00;29.33;;;;;;;;5184546;27;11706;-79
2022/01/31 06:58:17;;;;;;;;;29.33;29.33;;;;;;;;5184712;27;8786;-79
2022/01/31 07:00:43;;;;;;;;;29.00;27.33;;;;;;;;5185231;27;8796;-84
2022/01/31 07:03:10;;;;;;;;;28.00;26.67;;;;;;;;5184210;27;10093;-77
2022/01/31 07:05:36;;;;;;;;;28.67;26.33;;;;;;;;5184334;27;12224;-77
2022/01/31 07:08:02;;;;;;;;;32.33;28.00;;;;;;;;5183639;27;8802;-78
2022/01/31 07:10:27;;;;;;;;;32.33;28.33;;;;;;;;5183757;27;13280;-79
2022/01/31 07:12:54;;;;;;;;;42.67;38.67;;;;;;;;5184417;27;8785;-79
2022/01/31 07:15:19;;;;;;;;;47.67;41.00;;;;;;;;5183184;27;13545;-79
2022/01/31 07:17:46;;;;;;;;;66.67;51.00;;;;;;;;5183606;27;12645;-79
2022/01/31 07:20:20;;;;;;;;;83.25;67.75;;;;;;;;5185484;27;9612;-79
2022/01/31 07:22:51;;;;;;;;;81.75;63.00;;;;;;;;5184078;27;13344;-79
2022/01/31 07:25:34;;;;;;;;;79.25;63.00;;;;;;;;5185215;27;11708;-79
2022/01/31 07:28:00;;;;;;;;;85.00;67.00;;;;;;;;5183466;27;9895;-80
2022/01/31 07:30:25;;;;;;;;;82.75;67.25;;;;;;;;5179740;27;12433;-78
2022/01/31 07:32:51;;;;;;;;;86.25;70.00;;;;;;;;5163827;27;13798;-77
2022/01/31 07:35:16;;;;;;;;;86.00;69.75;;;;;;;;5183589;27;12487;-77
2022/01/31 07:37:42;;;;;;;;;85.00;65.75;;;;;;;;5179386;27;12457;-77
2022/01/31 07:40:07;;;;;;;;;82.50;66.50;;;;;;;;5168892;27;8792;-78
2022/01/31 07:42:32;;;;;;;;;82.00;67.75;;;;;;;;5161502;27;11703;-77
2022/01/31 07:44:58;;;;;;;;;87.00;65.75;;;;;;;;5142518;27;10719;-77
2022/01/31 07:47:23;;;;;;;;;87.00;71.00;;;;;;;;5162354;27;9042;-78
2022/01/31 07:49:51;;;;;;;;;81.25;63.50;;;;;;;;5167903;27;10673;-77
2022/01/31 07:52:16;;;;;;;;;75.75;62.25;;;;;;;;5179485;27;12483;-77
2022/01/31 08:06:26;;;;;;;;;81.50;63.75;;;;;;;;5213072;27;77016;-77
2022/01/31 08:08:51;;;;;;;;;73.33;60.00;;;;;;;;5183080;27;23012;-72
2022/01/31 08:11:17;;;;;;;;;60.33;53.00;;;;;;;;5183401;27;13347;-73
2022/01/31 08:13:42;;;;;;;;;72.67;57.33;;;;;;;;5187120;27;11002;-72
2022/01/31 08:18:38;;;;;;;;;78.25;60.50;;;;;;;;5184433;27;8882;-82
2022/01/31 08:21:03;;;;;;;;;83.75;66.25;;;;;;;;5185350;27;12520;-77
2022/01/31 08:23:29;;;;;;;;;80.75;63.50;;;;;;;;5185379;27;13467;-71
2022/01/31 08:25:55;;;;;;;;;79.75;62.75;;;;;;;;5188334;27;11347;-70
2022/01/31 08:28:31;;;;;;;;;78.00;62.50;;;;;;;;5189924;27;13591;-70
2022/01/31 08:31:05;;;;;;;;;79.00;62.00;;;;;;;;5184210;27;11591;-71
2022/01/31 08:33:37;;;;;;;;;83.75;65.75;;;;;;;;5165508;27;12130;-70
2022/01/31 08:36:05;;;;;;;;;85.75;64.25;;;;;;;;5180284;27;13482;-70
2022/01/31 08:38:30;;;;;;;;;78.33;62.67;;;;;;;;5176369;27;11630;-69
2022/01/31 08:40:57;;;;;;;;;80.25;63.50;;;;;;;;5175760;27;13453;-70
2022/01/31 08:43:23;;;;;;;;;74.50;60.25;;;;;;;;5176841;27;14540;-69
2022/01/31 08:45:50;;;;;;;;;80.00;61.50;;;;;;;;5179123;27;14970;-74
2022/01/31 08:48:16;;;;;;;;;66.00;53.00;;;;;;;;5165352;27;15474;-74
2022/01/31 08:50:41;;;;;;;;;65.33;53.00;;;;;;;;5186945;27;13260;-79
2022/01/31 08:53:07;;;;;;;;;67.67;53.00;;;;;;;;5197009;27;9431;-78
2022/01/31 08:55:32;;;;;;;;;72.00;54.00;;;;;;;;5191297;27;9073;-75
2022/01/31 08:57:58;;;;;;;;;64.33;51.00;;;;;;;;5183421;27;12400;-76
2022/01/31 09:00:34;;;;;;;;;60.00;50.00;;;;;;;;5186258;27;12278;-77
2022/01/31 09:05:49;;;;;;;;;68.33;54.33;;;;;;;;5131697;27;13444;-76
2022/01/31 09:08:14;;;;;;;;;75.00;60.00;;;;;;;;5182774;27;13522;-75
2022/01/31 09:10:40;;;;;;;;;86.75;66.25;;;;;;;;5186225;27;13339;-75
2022/01/31 09:13:06;;;;;;;;;89.50;72.00;;;;;;;;5166471;27;16384;-71
2022/01/31 09:15:31;;;;;;;;;94.25;79.00;;;;;;;;5117999;27;14589;-72
2022/01/31 09:17:56;;;;;;;;;93.50;76.25;;;;;;;;5129505;27;12195;-72
2022/01/31 09:20:21;;;;;;;;;92.75;73.50;;;;;;;;5128853;27;11386;-71
2022/01/31 09:22:47;;;;;;;;;91.00;72.00;;;;;;;;5107538;27;12467;-72
2022/01/31 09:25:14;;;;;;;;;86.00;67.75;;;;;;;;5148458;27;11357;-71
2022/01/31 09:27:39;;;;;;;;;74.50;58.00;;;;;;;;5149269;27;14421;-72
2022/01/31 09:30:05;;;;;;;;;81.50;65.75;;;;;;;;5150288;27;13257;-72
2022/01/31 09:32:31;;;;;;;;;74.25;59.00;;;;;;;;5148360;27;13496;-76
2022/01/31 09:34:56;;;;;;;;;70.00;55.33;;;;;;;;5151310;27;13306;-75
2022/01/31 09:37:22;;;;;;;;;68.67;56.33;;;;;;;;5150432;27;11686;-77
2022/01/31 09:39:51;;;;;;;;;66.00;54.33;;;;;;;;5154097;27;12643;-77
2022/01/31 09:42:26;;;;;;;;;69.00;54.67;;;;;;;;5153471;27;11654;-75
2022/01/31 09:45:08;;;;;;;;;65.00;51.67;;;;;;;;5143977;27;11705;-76
2022/01/31 09:48:32;;;;;;;;;67.67;52.00;;;;;;;;5154468;27;9060;-78
2022/01/31 09:50:19;;;;;;;;;64.67;50.00;;;;;;;;5149071;27;11962;-79
2022/01/31 09:52:44;;;;;;;;;62.33;51.00;;;;;;;;5150223;27;10160;-78
2022/01/31 09:55:10;;;;;;;;;70.00;55.00;;;;;;;;5152500;27;10575;-80
2022/01/31 09:57:35;;;;;;;;;58.67;46.00;;;;;;;;5149116;27;12386;-79
2022/01/31 10:00:00;;;;;;;;;63.67;52.33;;;;;;;;5151978;27;12366;-78
2022/01/31 10:02:25;;;;;;;;;47.33;43.33;;;;;;;;5147702;27;15712;-78
2022/01/31 10:04:51;;;;;;;;;48.33;42.00;;;;;;;;5145386;27;12217;-79
2022/01/31 10:07:17;;;;;;;;;50.33;42.00;;;;;;;;5159489;27;11437;-79
2022/01/31 10:09:46;;;;;;;;;56.00;43.67;;;;;;;;5162319;27;8781;-78
2022/01/31 10:18:01;;;;;;;;;53.33;46.67;;;;;;;;5118912;28;11408;-81
2022/01/31 10:20:29;;;;;;;;;51.67;45.33;;;;;;;;5117169;28;11719;-80
2022/01/31 10:22:55;;;;;;;;;42.67;38.00;;;;;;;;5118208;28;11437;-81
2022/01/31 10:25:21;;;;;;;;;49.67;40.00;;;;;;;;5118042;28;13484;-79
2022/01/31 10:27:48;;;;;;;;;56.00;44.33;;;;;;;;5116935;27;9702;-78
2022/01/31 10:30:16;;;;;;;;;56.67;46.33;;;;;;;;5117649;28;13323;-75
2022/01/31 10:32:43;;;;;;;;;53.00;43.33;;;;;;;;5093513;28;10282;-77
2022/01/31 10:35:10;;;;;;;;;58.00;48.00;;;;;;;;5106597;28;10462;-72
2022/01/31 10:37:38;;;;;;;;;59.67;47.00;;;;;;;;5108231;28;11716;-71
2022/01/31 10:53:23;;;;;;;;;58.00;47.00;;;;;;;;5151714;27;9655;-72
2022/01/31 10:55:54;;;;;;;;;62.33;46.33;;;;;;;;5150643;27;10540;-73
2022/01/31 10:58:20;;;;;;;;;60.00;48.00;;;;;;;;5146926;27;13724;-73
2022/01/31 11:00:45;;;;;;;;;58.00;46.00;;;;;;;;5154476;27;11873;-73
2022/01/31 11:03:31;;;;;;;;;54.00;45.00;;;;;;;;5160279;27;10591;-73
2022/01/31 11:05:56;;;;;;;;;58.00;48.33;;;;;;;;5160195;27;8937;-72
2022/01/31 11:08:22;;;;;;;;;58.33;46.00;;;;;;;;5160790;27;11429;-73
2022/01/31 11:10:47;;;;;;;;;54.00;43.67;;;;;;;;5160506;27;10604;-73
2022/01/31 11:13:17;;;;;;;;;52.00;41.00;;;;;;;;5161111;27;11566;-74
2022/01/31 11:15:43;;;;;;;;;50.33;41.00;;;;;;;;5158121;27;11976;-74
2022/01/31 11:18:09;;;;;;;;;56.00;44.33;;;;;;;;5161125;27;8798;-73
2022/01/31 11:20:37;;;;;;;;;46.33;40.33;;;;;;;;5160466;27;12285;-73
2022/01/31 11:23:05;;;;;;;;;46.33;39.33;;;;;;;;5159682;27;12592;-74
2022/01/31 11:25:31;;;;;;;;;45.67;40.67;;;;;;;;5158575;27;11349;-74
2022/01/31 11:28:02;;;;;;;;;51.00;41.00;;;;;;;;5160234;27;12245;-74
2022/01/31 11:30:27;;;;;;;;;48.00;41.00;;;;;;;;5160438;27;13378;-77
2022/01/31 11:32:53;;;;;;;;;52.00;42.00;;;;;;;;5160284;27;9548;-72
2022/01/31 11:35:19;;;;;;;;;53.00;41.00;;;;;;;;5159877;27;10461;-75
2022/01/31 11:37:44;;;;;;;;;52.67;43.67;;;;;;;;5158347;27;10779;-74
2022/01/31 11:40:10;;;;;;;;;51.67;41.00;;;;;;;;5157905;27;13453;-76
2022/01/31 11:42:36;;;;;;;;;45.33;39.33;;;;;;;;5160985;27;11520;-73
2022/01/31 11:45:07;;;;;;;;;46.00;40.00;;;;;;;;5158608;27;13253;-75
2022/01/31 11:47:35;;;;;;;;;47.33;41.00;;;;;;;;5154310;27;12746;-77
2022/01/31 11:50:04;;;;;;;;;53.00;42.33;;;;;;;;5150507;27;10442;-77
2022/01/31 11:52:31;;;;;;;;;50.00;41.00;;;;;;;;5145373;27;13675;-77
2022/01/31 11:55:00;;;;;;;;;48.67;39.00;;;;;;;;5146385;27;11514;-81
2022/01/31 11:57:33;;;;;;;;;50.33;39.67;;;;;;;;5144154;27;14252;-80
2022/01/31 12:00:00;;;;;;;;;45.00;40.33;;;;;;;;5147044;27;13782;-81
2022/01/31 12:02:29;;;;;;;;;50.00;37.67;;;;;;;;5147153;27;13641;-75
2022/01/31 12:04:54;;;;;;;;;40.33;36.67;;;;;;;;5146711;27;13333;-76
2022/01/31 12:07:30;;;;;;;;;45.00;35.67;;;;;;;;5149572;27;12393;-88
2022/01/31 12:09:58;;;;;;;;;42.67;36.33;;;;;;;;5153155;27;12121;-85
2022/01/31 12:12:34;;;;;;;;;46.67;37.67;;;;;;;;5140437;27;11641;-78
2022/01/31 12:15:21;;;;;;;;;30.50;28.00;;;;;;;;5139334;27;11653;-72
2022/01/31 12:18:06;;;;;;;;;35.50;32.50;;;;;;;;5138649;27;15048;-73
2022/01/31 12:23:52;;;;;;;;;38.00;31.67;;;;;;;;5141719;27;11521;-70
2022/01/31 12:26:32;;;;;;;;;32.00;27.00;;;;;;;;5138597;27;11621;-72
2022/01/31 12:29:17;;;;;;;;;33.67;29.67;;;;;;;;5139321;27;12298;-80
2022/01/31 12:31:44;;;;;;;;;34.67;29.33;;;;;;;;5139800;27;11720;-76
2022/01/31 12:34:21;;;;;;;;;40.67;31.33;;;;;;;;5143785;27;11586;-74
2022/01/31 12:36:52;;;;;;;;;38.33;32.33;;;;;;;;5159904;27;11479;-74
2022/01/31 12:39:38;;;;;;;;;36.00;35.67;;;;;;;;5159536;27;12340;-81
2022/01/31 12:42:32;;;;;;;;;43.00;39.00;;;;;;;;5157506;27;15006;-75
2022/01/31 12:44:57;;;;;;;;;42.33;37.00;;;;;;;;5158236;27;15723;-73
2022/01/31 12:47:23;;;;;;;;;43.67;35.00;;;;;;;;5159199;27;10349;-74
2022/01/31 12:50:07;;;;;;;;;44.67;36.33;;;;;;;;5159324;27;11695;-74
2022/01/31 12:52:35;;;;;;;;;31.25;31.25;;;;;;;;5162020;27;11855;-71
2022/01/31 12:55:10;;;;;;;;;15.00;11.00;;;;;;;;5163517;27;12466;-69
2022/01/31 12:57:45;;;;;;;;;33.00;27.50;;;;;;;;5163357;27;14734;-73
2022/01/31 13:00:11;;;;;;;;;30.50;26.75;;;;;;;;5162596;27;13331;-69
2022/01/31 13:02:46;;;;;;;;;32.00;25.67;;;;;;;;5162586;27;11765;-75
2022/01/31 13:05:11;;;;;;;;;31.75;27.75;;;;;;;;5157113;27;14445;-74
2022/01/31 13:07:36;;;;;;;;;26.33;26.33;;;;;;;;5142330;27;12060;-78
2022/01/31 13:10:09;;;;;;;;;28.00;24.75;;;;;;;;5140096;27;14506;-73
2022/01/31 13:12:35;;;;;;;;;25.00;20.50;;;;;;;;5141796;27;10978;-74
2022/01/31 13:15:00;;;;;;;;;41.00;35.33;;;;;;;;5142003;27;11488;-73
2022/01/31 13:17:26;;;;;;;;;21.67;17.33;;;;;;;;5142324;27;13602;-74
2022/01/31 13:19:52;;;;;;;;;17.00;17.00;;;;;;;;5141899;27;12193;-72
2022/01/31 13:22:26;;;;;;;;;29.00;27.67;;;;;;;;5141166;27;13464;-72
2022/01/31 13:24:54;;;;;;;;;22.25;20.00;;;;;;;;5141759;27;13367;-74
2022/01/31 13:27:20;;;;;;;;;10.00;10.00;;;;;;;;5144488;27;12661;-75
2022/01/31 13:29:46;;;;;;;;;25.50;19.50;;;;;;;;5151881;27;12539;-75
2022/01/31 13:32:14;;;;;;;;;22.75;19.25;;;;;;;;5162448;27;14382;-74
2022/01/31 13:34:43;;;;;;;;;22.25;22.25;;;;;;;;5160336;27;12132;-80
2022/01/31 13:37:27;;;;;;;;;24.50;19.75;;;;;;;;5160156;27;12910;-75
2022/01/31 13:39:53;;;;;;;;;22.50;20.00;;;;;;;;5161792;27;11770;-72
2022/01/31 13:42:28;;;;;;;;;19.75;19.00;;;;;;;;5160119;27;12642;-71
2022/01/31 13:44:56;;;;;;;;;22.50;21.00;;;;;;;;5161397;27;12454;-69
2022/01/31 13:47:28;;;;;;;;;26.00;18.50;;;;;;;;5161735;27;12315;-69
2022/01/31 13:49:54;;;;;;;;;22.00;19.00;;;;;;;;5161395;27;12457;-69
2022/01/31 13:52:20;;;;;;;;;19.50;18.00;;;;;;;;5161562;27;12274;-73
2022/01/31 13:54:45;;;;;;;;;22.00;19.00;;;;;;;;5161605;27;12320;-73
2022/01/31 13:57:11;;;;;;;;;22.75;18.75;;;;;;;;5161659;27;12224;-71
2022/01/31 13:59:37;;;;;;;;;23.00;18.00;;;;;;;;5161873;27;10828;-70
2022/01/31 14:02:12;;;;;;;;;25.00;24.00;;;;;;;;5161858;27;11418;-70
2022/01/31 14:04:40;;;;;;;;;21.50;21.00;;;;;;;;5161207;27;9914;-69
2022/01/31 14:07:22;;;;;;;;;23.00;18.25;;;;;;;;5155449;27;11522;-85
2022/01/31 14:09:48;;;;;;;;;24.00;19.00;;;;;;;;5150813;27;12300;-83
2022/01/31 14:12:14;;;;;;;;;23.00;19.75;;;;;;;;5149587;27;11605;-82
2022/01/31 14:14:43;;;;;;;;;20.75;20.75;;;;;;;;5149237;27;14154;-85
2022/01/31 14:17:08;;;;;;;;;24.50;22.00;;;;;;;;5148000;27;11540;-75
2022/01/31 14:19:34;;;;;;;;;28.25;22.75;;;;;;;;5150935;27;11515;-76
2022/01/31 14:21:59;;;;;;;;;22.25;21.75;;;;;;;;5146844;27;13781;-77
2022/01/31 14:24:30;;;;;;;;;18.75;18.75;;;;;;;;5145948;27;8861;-78
2022/01/31 14:26:59;;;;;;;;;25.50;22.75;;;;;;;;5140764;27;11475;-77
2022/01/31 14:29:25;;;;;;;;;22.75;22.00;;;;;;;;5142892;27;12493;-70
2022/01/31 14:31:51;;;;;;;;;26.50;22.75;;;;;;;;5161108;27;12275;-70
2022/01/31 14:34:17;;;;;;;;;28.75;22.75;;;;;;;;5160184;27;11563;-72
2022/01/31 14:36:43;;;;;;;;;23.25;21.00;;;;;;;;5161932;27;8972;-69
2022/01/31 14:49:46;;;;;;;;;35.00;27.50;;;;;;;;5161659;27;11460;-70
2022/01/31 14:52:11;;;;;;;;;31.25;27.00;;;;;;;;5160390;27;12671;-67
2022/01/31 14:54:40;;;;;;;;;29.75;24.75;;;;;;;;5158859;27;12309;-68
2022/01/31 14:57:06;;;;;;;;;28.75;27.00;;;;;;;;5161018;27;13382;-68
2022/01/31 14:59:32;;;;;;;;;41.50;32.25;;;;;;;;5159880;27;11553;-67
2022/01/31 15:01:57;;;;;;;;;28.75;27.25;;;;;;;;5159721;27;13709;-68
2022/01/31 15:04:24;;;;;;;;;34.00;31.00;;;;;;;;5159794;27;12689;-69
2022/01/31 15:06:50;;;;;;;;;34.00;32.75;;;;;;;;5160345;27;13408;-69
2022/01/31 15:09:15;;;;;;;;;35.00;27.50;;;;;;;;5160743;27;11591;-69